Weather at Gothenburg City Airport

Public forecast

Using degrees Celsius for public forecast. Weather courtesy of forecast.io.

Current aviation weather report (METAR) for Gothenburg City Airport

Report is more than 6 hours old.

2022/11/14 15:20 (retrieved 2 years ago)

ESGP 141520Z 11007KT 070V150 9999 OVC009 09/06 Q1020

Closest aviation forecast (TAF) to Gothenburg City Airport

Forecast is more than 12 hours old.

Closest forecast is Gothenburg-Landvetter Airport, 14.7 nm (27.3 km) ESE.

2023/02/22 21:21 (retrieved 1 year ago)

TAF TAF ESGG 222030Z 2221/2321 15010KT 9999 BKN025 PROB40 2300/2303 2000 SNRA BKN008 BECMG 2303/2305 4000 -RADZ BR OVC006 TEMPO 2305/2321 1200 OVC003 BECMG 2314/2316 VRB03KT